sensor_id;sensor_type;location;lat;lon;timestamp;P1;durP1;ratioP1;P2;durP2;ratioP2
74108;SDS011;62466;47.566;7.786;2023-04-24T00:01:21;0.75;;;0.75;;
74108;SDS011;62466;47.566;7.786;2023-04-24T00:03:47;0.80;;;0.80;;
74108;SDS011;62466;47.566;7.786;2023-04-24T00:06:12;0.60;;;0.60;;
74108;SDS011;62466;47.566;7.786;2023-04-24T00:08:38;0.85;;;0.75;;
74108;SDS011;62466;47.566;7.786;2023-04-24T00:11:03;0.63;;;0.63;;
74108;SDS011;62466;47.566;7.786;2023-04-24T00:13:29;0.70;;;0.70;;
74108;SDS011;62466;47.566;7.786;2023-04-24T00:15:55;0.60;;;0.60;;
74108;SDS011;62466;47.566;7.786;2023-04-24T00:18:21;0.60;;;0.60;;
74108;SDS011;62466;47.566;7.786;2023-04-24T00:20:46;0.70;;;0.70;;
74108;SDS011;62466;47.566;7.786;2023-04-24T00:23:12;0.70;;;0.68;;
74108;SDS011;62466;47.566;7.786;2023-04-24T00:25:38;0.90;;;0.90;;
74108;SDS011;62466;47.566;7.786;2023-04-24T00:28:04;1.00;;;0.70;;
74108;SDS011;62466;47.566;7.786;2023-04-24T00:30:29;0.70;;;0.70;;
74108;SDS011;62466;47.566;7.786;2023-04-24T00:32:55;1.38;;;0.57;;
74108;SDS011;62466;47.566;7.786;2023-04-24T00:35:22;0.73;;;0.73;;
74108;SDS011;62466;47.566;7.786;2023-04-24T00:37:48;1.75;;;0.93;;
74108;SDS011;62466;47.566;7.786;2023-04-24T00:40:14;1.23;;;0.77;;
74108;SDS011;62466;47.566;7.786;2023-04-24T00:42:40;0.80;;;0.70;;
74108;SDS011;62466;47.566;7.786;2023-04-24T00:45:06;0.80;;;0.80;;
74108;SDS011;62466;47.566;7.786;2023-04-24T00:50:04;0.80;;;0.80;;
74108;SDS011;62466;47.566;7.786;2023-04-24T00:52:30;0.93;;;0.70;;
74108;SDS011;62466;47.566;7.786;2023-04-24T00:54:57;1.13;;;0.90;;
74108;SDS011;62466;47.566;7.786;2023-04-24T00:57:23;0.80;;;0.80;;
74108;SDS011;62466;47.566;7.786;2023-04-24T00:59:50;0.60;;;0.60;;
74108;SDS011;62466;47.566;7.786;2023-04-24T01:02:16;0.75;;;0.75;;
74108;SDS011;62466;47.566;7.786;2023-04-24T01:04:42;0.60;;;0.60;;
74108;SDS011;62466;47.566;7.786;2023-04-24T01:07:08;1.73;;;0.80;;
74108;SDS011;62466;47.566;7.786;2023-04-24T01:09:36;0.70;;;0.70;;
74108;SDS011;62466;47.566;7.786;2023-04-24T01:12:03;1.50;;;0.80;;
74108;SDS011;62466;47.566;7.786;2023-04-24T01:14:29;0.90;;;0.80;;
74108;SDS011;62466;47.566;7.786;2023-04-24T01:16:55;0.52;;;0.52;;
74108;SDS011;62466;47.566;7.786;2023-04-24T01:19:22;0.60;;;0.60;;
74108;SDS011;62466;47.566;7.786;2023-04-24T01:21:48;2.42;;;0.80;;
74108;SDS011;62466;47.566;7.786;2023-04-24T01:24:16;0.60;;;0.60;;
74108;SDS011;62466;47.566;7.786;2023-04-24T01:26:44;0.85;;;0.85;;
74108;SDS011;62466;47.566;7.786;2023-04-24T01:29:10;0.82;;;0.77;;
74108;SDS011;62466;47.566;7.786;2023-04-24T01:31:37;0.90;;;0.85;;
74108;SDS011;62466;47.566;7.786;2023-04-24T01:34:03;2.70;;;0.60;;
74108;SDS011;62466;47.566;7.786;2023-04-24T01:36:29;1.30;;;1.25;;
74108;SDS011;62466;47.566;7.786;2023-04-24T01:38:56;0.88;;;0.73;;
74108;SDS011;62466;47.566;7.786;2023-04-24T01:41:24;1.10;;;0.70;;
74108;SDS011;62466;47.566;7.786;2023-04-24T01:43:50;1.05;;;0.80;;
74108;SDS011;62466;47.566;7.786;2023-04-24T01:46:18;0.60;;;0.60;;
74108;SDS011;62466;47.566;7.786;2023-04-24T01:48:44;1.60;;;0.90;;
74108;SDS011;62466;47.566;7.786;2023-04-24T01:51:11;0.65;;;0.65;;
74108;SDS011;62466;47.566;7.786;2023-04-24T01:53:36;0.70;;;0.70;;
74108;SDS011;62466;47.566;7.786;2023-04-24T01:56:02;0.70;;;0.70;;
74108;SDS011;62466;47.566;7.786;2023-04-24T01:58:28;0.70;;;0.70;;
74108;SDS011;62466;47.566;7.786;2023-04-24T02:00:58;1.35;;;0.70;;
74108;SDS011;62466;47.566;7.786;2023-04-24T02:03:26;0.52;;;0.52;;
74108;SDS011;62466;47.566;7.786;2023-04-24T02:05:52;0.93;;;0.70;;
74108;SDS011;62466;47.566;7.786;2023-04-24T02:08:17;0.70;;;0.70;;
74108;SDS011;62466;47.566;7.786;2023-04-24T02:10:43;1.38;;;0.90;;
74108;SDS011;62466;47.566;7.786;2023-04-24T02:13:09;2.17;;;1.00;;
74108;SDS011;62466;47.566;7.786;2023-04-24T02:15:35;0.65;;;0.65;;
74108;SDS011;62466;47.566;7.786;2023-04-24T02:18:02;0.63;;;0.63;;
74108;SDS011;62466;47.566;7.786;2023-04-24T02:20:30;2.20;;;0.77;;
74108;SDS011;62466;47.566;7.786;2023-04-24T02:22:59;0.65;;;0.65;;
74108;SDS011;62466;47.566;7.786;2023-04-24T02:25:24;1.05;;;0.75;;
74108;SDS011;62466;47.566;7.786;2023-04-24T02:27:52;1.10;;;0.70;;
74108;SDS011;62466;47.566;7.786;2023-04-24T02:30:18;0.88;;;0.65;;
74108;SDS011;62466;47.566;7.786;2023-04-24T02:32:44;2.72;;;0.85;;
74108;SDS011;62466;47.566;7.786;2023-04-24T02:35:10;3.05;;;0.90;;
74108;SDS011;62466;47.566;7.786;2023-04-24T02:37:35;0.80;;;0.80;;
74108;SDS011;62466;47.566;7.786;2023-04-24T02:40:01;1.02;;;0.90;;
74108;SDS011;62466;47.566;7.786;2023-04-24T02:42:27;1.48;;;0.85;;
74108;SDS011;62466;47.566;7.786;2023-04-24T02:44:53;4.38;;;0.90;;
74108;SDS011;62466;47.566;7.786;2023-04-24T02:47:18;0.80;;;0.80;;
74108;SDS011;62466;47.566;7.786;2023-04-24T02:49:44;0.70;;;0.70;;
74108;SDS011;62466;47.566;7.786;2023-04-24T02:52:10;0.75;;;0.75;;
74108;SDS011;62466;47.566;7.786;2023-04-24T02:54:36;1.40;;;0.80;;
74108;SDS011;62466;47.566;7.786;2023-04-24T02:57:01;0.77;;;0.77;;
74108;SDS011;62466;47.566;7.786;2023-04-24T02:59:28;1.42;;;0.90;;
74108;SDS011;62466;47.566;7.786;2023-04-24T03:01:54;0.93;;;0.80;;
74108;SDS011;62466;47.566;7.786;2023-04-24T03:04:20;2.22;;;0.80;;
74108;SDS011;62466;47.566;7.786;2023-04-24T03:06:47;1.23;;;0.70;;
74108;SDS011;62466;47.566;7.786;2023-04-24T03:09:12;0.70;;;0.70;;
74108;SDS011;62466;47.566;7.786;2023-04-24T03:11:38;0.88;;;0.63;;
74108;SDS011;62466;47.566;7.786;2023-04-24T03:14:06;1.27;;;0.80;;
74108;SDS011;62466;47.566;7.786;2023-04-24T03:16:32;2.47;;;0.90;;
74108;SDS011;62466;47.566;7.786;2023-04-24T03:18:58;1.42;;;0.80;;
74108;SDS011;62466;47.566;7.786;2023-04-24T03:21:26;1.27;;;0.93;;
74108;SDS011;62466;47.566;7.786;2023-04-24T03:23:52;0.95;;;0.70;;
74108;SDS011;62466;47.566;7.786;2023-04-24T03:26:18;1.00;;;0.88;;
74108;SDS011;62466;47.566;7.786;2023-04-24T03:28:57;1.10;;;1.00;;
74108;SDS011;62466;47.566;7.786;2023-04-24T03:31:23;1.75;;;0.90;;
74108;SDS011;62466;47.566;7.786;2023-04-24T03:33:49;1.40;;;1.27;;
74108;SDS011;62466;47.566;7.786;2023-04-24T03:36:17;2.00;;;1.15;;
74108;SDS011;62466;47.566;7.786;2023-04-24T03:38:44;1.65;;;1.00;;
74108;SDS011;62466;47.566;7.786;2023-04-24T03:41:26;1.10;;;1.10;;
74108;SDS011;62466;47.566;7.786;2023-04-24T03:46:33;3.17;;;1.05;;
74108;SDS011;62466;47.566;7.786;2023-04-24T03:49:00;2.80;;;1.17;;
74108;SDS011;62466;47.566;7.786;2023-04-24T03:51:30;4.05;;;1.70;;
74108;SDS011;62466;47.566;7.786;2023-04-24T03:54:04;2.67;;;1.35;;
74108;SDS011;62466;47.566;7.786;2023-04-24T03:56:33;1.10;;;1.10;;
74108;SDS011;62466;47.566;7.786;2023-04-24T03:59:01;1.40;;;1.30;;
74108;SDS011;62466;47.566;7.786;2023-04-24T04:01:29;1.98;;;1.35;;
74108;SDS011;62466;47.566;7.786;2023-04-24T04:04:00;3.30;;;1.30;;
74108;SDS011;62466;47.566;7.786;2023-04-24T04:06:26;1.33;;;1.20;;
74108;SDS011;62466;47.566;7.786;2023-04-24T04:08:54;1.60;;;1.40;;
74108;SDS011;62466;47.566;7.786;2023-04-24T04:11:19;2.05;;;1.67;;
74108;SDS011;62466;47.566;7.786;2023-04-24T04:13:45;1.40;;;1.30;;
74108;SDS011;62466;47.566;7.786;2023-04-24T04:16:14;3.30;;;1.55;;
74108;SDS011;62466;47.566;7.786;2023-04-24T04:18:43;1.42;;;1.38;;
74108;SDS011;62466;47.566;7.786;2023-04-24T04:21:09;1.48;;;1.35;;
74108;SDS011;62466;47.566;7.786;2023-04-24T04:23:35;1.70;;;1.60;;
74108;SDS011;62466;47.566;7.786;2023-04-24T04:26:09;1.60;;;1.50;;
74108;SDS011;62466;47.566;7.786;2023-04-24T04:28:47;1.90;;;1.80;;
74108;SDS011;62466;47.566;7.786;2023-04-24T04:31:14;1.50;;;1.40;;
74108;SDS011;62466;47.566;7.786;2023-04-24T04:33:40;1.80;;;1.70;;
74108;SDS011;62466;47.566;7.786;2023-04-24T04:36:07;1.98;;;1.60;;
74108;SDS011;62466;47.566;7.786;2023-04-24T04:38:37;1.98;;;1.70;;
74108;SDS011;62466;47.566;7.786;2023-04-24T04:41:13;2.22;;;1.70;;
74108;SDS011;62466;47.566;7.786;2023-04-24T04:43:40;1.63;;;1.52;;
74108;SDS011;62466;47.566;7.786;2023-04-24T04:46:06;1.85;;;1.75;;
74108;SDS011;62466;47.566;7.786;2023-04-24T04:49:02;2.08;;;1.98;;
74108;SDS011;62466;47.566;7.786;2023-04-24T04:51:28;2.22;;;2.03;;
74108;SDS011;62466;47.566;7.786;2023-04-24T04:53:54;1.85;;;1.70;;
74108;SDS011;62466;47.566;7.786;2023-04-24T04:56:20;2.15;;;1.90;;
74108;SDS011;62466;47.566;7.786;2023-04-24T04:58:45;3.70;;;2.20;;
74108;SDS011;62466;47.566;7.786;2023-04-24T05:01:14;2.20;;;2.00;;
74108;SDS011;62466;47.566;7.786;2023-04-24T05:03:41;3.20;;;2.55;;
74108;SDS011;62466;47.566;7.786;2023-04-24T05:06:10;3.22;;;2.13;;
74108;SDS011;62466;47.566;7.786;2023-04-24T05:08:37;6.53;;;2.25;;
74108;SDS011;62466;47.566;7.786;2023-04-24T05:11:06;2.30;;;2.20;;
74108;SDS011;62466;47.566;7.786;2023-04-24T05:13:31;2.50;;;2.30;;
74108;SDS011;62466;47.566;7.786;2023-04-24T05:15:58;3.08;;;2.50;;
74108;SDS011;62466;47.566;7.786;2023-04-24T05:18:24;2.45;;;2.20;;
74108;SDS011;62466;47.566;7.786;2023-04-24T05:20:49;3.60;;;2.20;;
74108;SDS011;62466;47.566;7.786;2023-04-24T05:23:15;2.92;;;2.40;;
74108;SDS011;62466;47.566;7.786;2023-04-24T05:25:42;3.00;;;2.80;;
74108;SDS011;62466;47.566;7.786;2023-04-24T05:28:12;2.70;;;2.35;;
74108;SDS011;62466;47.566;7.786;2023-04-24T05:30:38;2.40;;;2.20;;
74108;SDS011;62466;47.566;7.786;2023-04-24T05:33:04;3.10;;;2.47;;
74108;SDS011;62466;47.566;7.786;2023-04-24T05:35:33;2.58;;;2.33;;
74108;SDS011;62466;47.566;7.786;2023-04-24T05:37:59;2.33;;;2.22;;
74108;SDS011;62466;47.566;7.786;2023-04-24T05:40:25;2.97;;;2.78;;
74108;SDS011;62466;47.566;7.786;2023-04-24T05:42:50;3.67;;;3.28;;
74108;SDS011;62466;47.566;7.786;2023-04-24T05:45:16;3.15;;;2.60;;
74108;SDS011;62466;47.566;7.786;2023-04-24T05:47:42;3.10;;;2.88;;
74108;SDS011;62466;47.566;7.786;2023-04-24T05:50:10;3.25;;;2.85;;
74108;SDS011;62466;47.566;7.786;2023-04-24T05:52:35;4.10;;;3.05;;
74108;SDS011;62466;47.566;7.786;2023-04-24T05:55:05;3.08;;;2.78;;
74108;SDS011;62466;47.566;7.786;2023-04-24T05:57:32;2.90;;;2.70;;
74108;SDS011;62466;47.566;7.786;2023-04-24T06:00:02;3.20;;;2.78;;
74108;SDS011;62466;47.566;7.786;2023-04-24T06:02:38;3.30;;;2.95;;
74108;SDS011;62466;47.566;7.786;2023-04-24T06:05:04;2.85;;;2.65;;
74108;SDS011;62466;47.566;7.786;2023-04-24T06:07:30;3.42;;;2.53;;
74108;SDS011;62466;47.566;7.786;2023-04-24T06:09:56;3.13;;;2.90;;
74108;SDS011;62466;47.566;7.786;2023-04-24T06:12:22;2.92;;;2.53;;
74108;SDS011;62466;47.566;7.786;2023-04-24T06:14:55;3.47;;;2.60;;
74108;SDS011;62466;47.566;7.786;2023-04-24T06:17:26;3.30;;;2.70;;
74108;SDS011;62466;47.566;7.786;2023-04-24T06:19:52;4.35;;;2.70;;
74108;SDS011;62466;47.566;7.786;2023-04-24T06:22:19;3.60;;;2.40;;
74108;SDS011;62466;47.566;7.786;2023-04-24T06:24:44;3.88;;;2.47;;
74108;SDS011;62466;47.566;7.786;2023-04-24T06:27:10;2.97;;;2.40;;
74108;SDS011;62466;47.566;7.786;2023-04-24T06:29:35;2.63;;;2.05;;
74108;SDS011;62466;47.566;7.786;2023-04-24T06:32:01;2.60;;;2.40;;
74108;SDS011;62466;47.566;7.786;2023-04-24T06:34:27;3.28;;;2.80;;
74108;SDS011;62466;47.566;7.786;2023-04-24T06:36:53;1.83;;;1.70;;
74108;SDS011;62466;47.566;7.786;2023-04-24T06:39:19;1.60;;;1.50;;
74108;SDS011;62466;47.566;7.786;2023-04-24T06:41:45;2.42;;;1.83;;
74108;SDS011;62466;47.566;7.786;2023-04-24T06:44:17;2.83;;;2.20;;
74108;SDS011;62466;47.566;7.786;2023-04-24T06:46:43;3.90;;;2.33;;
74108;SDS011;62466;47.566;7.786;2023-04-24T06:49:09;3.00;;;2.25;;
74108;SDS011;62466;47.566;7.786;2023-04-24T06:51:34;2.53;;;2.30;;
74108;SDS011;62466;47.566;7.786;2023-04-24T06:53:59;3.90;;;2.25;;
74108;SDS011;62466;47.566;7.786;2023-04-24T06:56:25;4.50;;;2.22;;
74108;SDS011;62466;47.566;7.786;2023-04-24T06:58:51;2.63;;;2.38;;
74108;SDS011;62466;47.566;7.786;2023-04-24T07:01:16;4.38;;;2.25;;
74108;SDS011;62466;47.566;7.786;2023-04-24T07:03:42;4.53;;;2.53;;
74108;SDS011;62466;47.566;7.786;2023-04-24T07:06:10;4.38;;;3.00;;
74108;SDS011;62466;47.566;7.786;2023-04-24T07:08:40;4.30;;;2.70;;
74108;SDS011;62466;47.566;7.786;2023-04-24T07:11:06;2.95;;;2.65;;
74108;SDS011;62466;47.566;7.786;2023-04-24T07:13:32;3.75;;;3.03;;
74108;SDS011;62466;47.566;7.786;2023-04-24T07:16:00;3.50;;;3.08;;
74108;SDS011;62466;47.566;7.786;2023-04-24T07:18:25;5.47;;;2.63;;
74108;SDS011;62466;47.566;7.786;2023-04-24T07:20:51;3.75;;;2.83;;
74108;SDS011;62466;47.566;7.786;2023-04-24T07:23:17;6.97;;;3.00;;
74108;SDS011;62466;47.566;7.786;2023-04-24T07:25:43;5.43;;;3.30;;
74108;SDS011;62466;47.566;7.786;2023-04-24T07:28:09;6.18;;;3.45;;
74108;SDS011;62466;47.566;7.786;2023-04-24T07:30:34;6.20;;;3.35;;
74108;SDS011;62466;47.566;7.786;2023-04-24T07:33:00;5.63;;;2.95;;
74108;SDS011;62466;47.566;7.786;2023-04-24T07:35:26;4.80;;;3.28;;
74108;SDS011;62466;47.566;7.786;2023-04-24T07:37:55;3.67;;;3.15;;
74108;SDS011;62466;47.566;7.786;2023-04-24T07:40:21;4.13;;;2.85;;
74108;SDS011;62466;47.566;7.786;2023-04-24T07:42:47;5.25;;;2.90;;
74108;SDS011;62466;47.566;7.786;2023-04-24T07:45:16;3.88;;;2.80;;
74108;SDS011;62466;47.566;7.786;2023-04-24T07:47:42;4.13;;;2.83;;
74108;SDS011;62466;47.566;7.786;2023-04-24T07:50:09;5.80;;;3.17;;
74108;SDS011;62466;47.566;7.786;2023-04-24T07:52:34;3.03;;;2.55;;
74108;SDS011;62466;47.566;7.786;2023-04-24T07:55:00;3.97;;;3.40;;
74108;SDS011;62466;47.566;7.786;2023-04-24T07:57:27;3.10;;;2.80;;
74108;SDS011;62466;47.566;7.786;2023-04-24T07:59:52;5.60;;;2.58;;
74108;SDS011;62466;47.566;7.786;2023-04-24T08:02:18;3.97;;;2.58;;
74108;SDS011;62466;47.566;7.786;2023-04-24T08:04:43;3.53;;;2.60;;
74108;SDS011;62466;47.566;7.786;2023-04-24T08:07:09;2.95;;;2.60;;
74108;SDS011;62466;47.566;7.786;2023-04-24T08:09:37;4.03;;;2.88;;
74108;SDS011;62466;47.566;7.786;2023-04-24T08:12:03;4.43;;;2.53;;
74108;SDS011;62466;47.566;7.786;2023-04-24T08:14:29;4.78;;;2.80;;
74108;SDS011;62466;47.566;7.786;2023-04-24T08:16:55;2.75;;;2.55;;
74108;SDS011;62466;47.566;7.786;2023-04-24T08:19:21;5.35;;;2.70;;
74108;SDS011;62466;47.566;7.786;2023-04-24T08:21:46;4.57;;;2.70;;
74108;SDS011;62466;47.566;7.786;2023-04-24T08:24:12;4.47;;;2.58;;
74108;SDS011;62466;47.566;7.786;2023-04-24T08:26:37;3.53;;;2.95;;
74108;SDS011;62466;47.566;7.786;2023-04-24T08:29:02;4.43;;;2.53;;
74108;SDS011;62466;47.566;7.786;2023-04-24T08:31:28;3.55;;;3.15;;
74108;SDS011;62466;47.566;7.786;2023-04-24T08:33:53;2.05;;;1.95;;
74108;SDS011;62466;47.566;7.786;2023-04-24T08:36:19;5.28;;;2.67;;
74108;SDS011;62466;47.566;7.786;2023-04-24T08:38:45;2.78;;;2.58;;
74108;SDS011;62466;47.566;7.786;2023-04-24T08:41:11;2.38;;;2.17;;
74108;SDS011;62466;47.566;7.786;2023-04-24T08:43:39;2.15;;;2.00;;
74108;SDS011;62466;47.566;7.786;2023-04-24T08:46:05;3.50;;;2.22;;
74108;SDS011;62466;47.566;7.786;2023-04-24T08:48:31;3.92;;;2.45;;
74108;SDS011;62466;47.566;7.786;2023-04-24T08:50:56;3.05;;;2.15;;
74108;SDS011;62466;47.566;7.786;2023-04-24T08:53:25;2.88;;;2.03;;
74108;SDS011;62466;47.566;7.786;2023-04-24T08:55:51;4.22;;;1.98;;
74108;SDS011;62466;47.566;7.786;2023-04-24T08:58:20;5.05;;;2.08;;
74108;SDS011;62466;47.566;7.786;2023-04-24T09:00:45;2.38;;;2.17;;
74108;SDS011;62466;47.566;7.786;2023-04-24T09:03:15;4.07;;;2.60;;
74108;SDS011;62466;47.566;7.786;2023-04-24T09:05:44;5.40;;;3.13;;
74108;SDS011;62466;47.566;7.786;2023-04-24T09:08:19;3.53;;;2.25;;
74108;SDS011;62466;47.566;7.786;2023-04-24T09:10:45;2.50;;;2.30;;
74108;SDS011;62466;47.566;7.786;2023-04-24T09:13:10;4.13;;;2.33;;
74108;SDS011;62466;47.566;7.786;2023-04-24T09:15:40;3.63;;;2.15;;
74108;SDS011;62466;47.566;7.786;2023-04-24T09:18:06;5.32;;;2.17;;
74108;SDS011;62466;47.566;7.786;2023-04-24T09:20:32;3.03;;;2.22;;
74108;SDS011;62466;47.566;7.786;2023-04-24T09:22:58;4.47;;;2.00;;
74108;SDS011;62466;47.566;7.786;2023-04-24T09:25:33;3.67;;;2.05;;
74108;SDS011;62466;47.566;7.786;2023-04-24T09:28:01;2.78;;;1.90;;
74108;SDS011;62466;47.566;7.786;2023-04-24T09:30:31;3.42;;;1.92;;
74108;SDS011;62466;47.566;7.786;2023-04-24T09:33:13;2.58;;;1.83;;
74108;SDS011;62466;47.566;7.786;2023-04-24T09:35:49;2.67;;;2.00;;
74108;SDS011;62466;47.566;7.786;2023-04-24T09:38:16;4.57;;;2.03;;
74108;SDS011;62466;47.566;7.786;2023-04-24T09:40:41;3.42;;;2.03;;
74108;SDS011;62466;47.566;7.786;2023-04-24T09:43:09;2.88;;;1.88;;
74108;SDS011;62466;47.566;7.786;2023-04-24T09:45:36;4.75;;;2.10;;
74108;SDS011;62466;47.566;7.786;2023-04-24T09:48:03;2.85;;;1.90;;
74108;SDS011;62466;47.566;7.786;2023-04-24T09:50:30;4.07;;;1.98;;
74108;SDS011;62466;47.566;7.786;2023-04-24T09:53:03;4.35;;;2.00;;
74108;SDS011;62466;47.566;7.786;2023-04-24T09:55:29;3.83;;;1.80;;
74108;SDS011;62466;47.566;7.786;2023-04-24T09:57:56;4.55;;;1.90;;
74108;SDS011;62466;47.566;7.786;2023-04-24T10:00:25;2.90;;;2.35;;
74108;SDS011;62466;47.566;7.786;2023-04-24T10:02:56;3.13;;;1.75;;
74108;SDS011;62466;47.566;7.786;2023-04-24T10:05:40;3.75;;;1.85;;
74108;SDS011;62466;47.566;7.786;2023-04-24T10:08:06;1.90;;;1.80;;
74108;SDS011;62466;47.566;7.786;2023-04-24T10:10:34;2.40;;;2.20;;
74108;SDS011;62466;47.566;7.786;2023-04-24T10:13:03;3.47;;;1.70;;
74108;SDS011;62466;47.566;7.786;2023-04-24T10:15:29;3.45;;;2.35;;
74108;SDS011;62466;47.566;7.786;2023-04-24T10:17:55;4.22;;;2.20;;
74108;SDS011;62466;47.566;7.786;2023-04-24T10:20:25;4.95;;;2.13;;
74108;SDS011;62466;47.566;7.786;2023-04-24T10:22:52;5.38;;;2.33;;
74108;SDS011;62466;47.566;7.786;2023-04-24T10:25:19;4.88;;;2.25;;
74108;SDS011;62466;47.566;7.786;2023-04-24T10:27:47;3.78;;;2.15;;
74108;SDS011;62466;47.566;7.786;2023-04-24T10:30:14;3.38;;;2.20;;
74108;SDS011;62466;47.566;7.786;2023-04-24T10:32:39;2.55;;;2.20;;
74108;SDS011;62466;47.566;7.786;2023-04-24T10:35:09;4.57;;;2.63;;
74108;SDS011;62466;47.566;7.786;2023-04-24T10:38:21;3.13;;;2.72;;
74108;SDS011;62466;47.566;7.786;2023-04-24T10:40:34;3.97;;;2.00;;
74108;SDS011;62466;47.566;7.786;2023-04-24T10:43:07;2.92;;;2.08;;
74108;SDS011;62466;47.566;7.786;2023-04-24T10:45:35;3.38;;;1.90;;
74108;SDS011;62466;47.566;7.786;2023-04-24T10:48:02;3.10;;;2.20;;
74108;SDS011;62466;47.566;7.786;2023-04-24T10:50:28;3.45;;;2.40;;
74108;SDS011;62466;47.566;7.786;2023-04-24T10:53:05;2.88;;;2.15;;
74108;SDS011;62466;47.566;7.786;2023-04-24T10:58:11;15.30;;;7.70;;
74108;SDS011;62466;47.566;7.786;2023-04-24T11:00:37;4.30;;;3.00;;
74108;SDS011;62466;47.566;7.786;2023-04-24T11:03:04;2.20;;;1.95;;
74108;SDS011;62466;47.566;7.786;2023-04-24T11:05:50;5.10;;;2.28;;
74108;SDS011;62466;47.566;7.786;2023-04-24T11:08:24;4.07;;;2.30;;
74108;SDS011;62466;47.566;7.786;2023-04-24T11:11:14;6.07;;;3.05;;
74108;SDS011;62466;47.566;7.786;2023-04-24T11:19:24;4.43;;;2.47;;
74108;SDS011;62466;47.566;7.786;2023-04-24T11:21:55;2.08;;;1.77;;
74108;SDS011;62466;47.566;7.786;2023-04-24T11:24:23;2.88;;;2.25;;
74108;SDS011;62466;47.566;7.786;2023-04-24T11:37:51;2.40;;;1.80;;
74108;SDS011;62466;47.566;7.786;2023-04-24T11:40:18;2.95;;;2.58;;
74108;SDS011;62466;47.566;7.786;2023-04-24T11:42:49;4.93;;;2.22;;
74108;SDS011;62466;47.566;7.786;2023-04-24T11:45:16;2.30;;;1.90;;
74108;SDS011;62466;47.566;7.786;2023-04-24T11:47:43;3.65;;;2.10;;
74108;SDS011;62466;47.566;7.786;2023-04-24T11:50:13;3.20;;;1.90;;
74108;SDS011;62466;47.566;7.786;2023-04-24T11:52:40;1.85;;;1.58;;
74108;SDS011;62466;47.566;7.786;2023-04-24T11:55:07;1.70;;;1.60;;
74108;SDS011;62466;47.566;7.786;2023-04-24T11:57:37;3.63;;;1.98;;
74108;SDS011;62466;47.566;7.786;2023-04-24T12:00:03;3.90;;;1.90;;
74108;SDS011;62466;47.566;7.786;2023-04-24T12:02:39;2.65;;;1.77;;
74108;SDS011;62466;47.566;7.786;2023-04-24T12:05:04;6.90;;;2.00;;
74108;SDS011;62466;47.566;7.786;2023-04-24T12:07:30;4.70;;;2.03;;
74108;SDS011;62466;47.566;7.786;2023-04-24T12:10:10;4.07;;;1.90;;
74108;SDS011;62466;47.566;7.786;2023-04-24T12:12:36;4.05;;;2.13;;
74108;SDS011;62466;47.566;7.786;2023-04-24T12:15:05;3.80;;;2.05;;
74108;SDS011;62466;47.566;7.786;2023-04-24T12:17:32;3.72;;;2.15;;
74108;SDS011;62466;47.566;7.786;2023-04-24T12:20:02;2.10;;;1.90;;
74108;SDS011;62466;47.566;7.786;2023-04-24T12:22:50;4.28;;;2.15;;
74108;SDS011;62466;47.566;7.786;2023-04-24T12:25:19;5.00;;;2.17;;
74108;SDS011;62466;47.566;7.786;2023-04-24T12:27:45;2.35;;;2.20;;
74108;SDS011;62466;47.566;7.786;2023-04-24T12:30:16;2.55;;;2.00;;
74108;SDS011;62466;47.566;7.786;2023-04-24T12:32:45;2.83;;;2.20;;
74108;SDS011;62466;47.566;7.786;2023-04-24T12:35:11;5.07;;;2.20;;
74108;SDS011;62466;47.566;7.786;2023-04-24T12:37:37;3.28;;;2.30;;
74108;SDS011;62466;47.566;7.786;2023-04-24T12:40:05;2.28;;;2.05;;
74108;SDS011;62466;47.566;7.786;2023-04-24T12:42:33;5.97;;;2.30;;
74108;SDS011;62466;47.566;7.786;2023-04-24T12:45:03;2.83;;;1.88;;
74108;SDS011;62466;47.566;7.786;2023-04-24T12:47:31;3.88;;;1.98;;
74108;SDS011;62466;47.566;7.786;2023-04-24T12:49:57;4.82;;;2.20;;
74108;SDS011;62466;47.566;7.786;2023-04-24T12:52:23;2.00;;;1.80;;
74108;SDS011;62466;47.566;7.786;2023-04-24T12:54:49;2.72;;;1.92;;
74108;SDS011;62466;47.566;7.786;2023-04-24T12:57:17;2.42;;;2.05;;
74108;SDS011;62466;47.566;7.786;2023-04-24T12:59:43;4.38;;;2.28;;
74108;SDS011;62466;47.566;7.786;2023-04-24T13:02:09;2.97;;;2.40;;
74108;SDS011;62466;47.566;7.786;2023-04-24T13:04:35;3.70;;;2.60;;
74108;SDS011;62466;47.566;7.786;2023-04-24T13:07:00;2.53;;;2.30;;
74108;SDS011;62466;47.566;7.786;2023-04-24T13:09:26;2.78;;;1.80;;
74108;SDS011;62466;47.566;7.786;2023-04-24T13:11:51;2.30;;;2.10;;
74108;SDS011;62466;47.566;7.786;2023-04-24T13:14:17;3.00;;;2.42;;
74108;SDS011;62466;47.566;7.786;2023-04-24T13:16:42;4.03;;;2.55;;
74108;SDS011;62466;47.566;7.786;2023-04-24T13:19:08;2.63;;;2.13;;
74108;SDS011;62466;47.566;7.786;2023-04-24T13:21:33;2.05;;;1.83;;
74108;SDS011;62466;47.566;7.786;2023-04-24T13:23:59;3.60;;;2.67;;
74108;SDS011;62466;47.566;7.786;2023-04-24T13:26:24;2.47;;;2.15;;
74108;SDS011;62466;47.566;7.786;2023-04-24T13:28:50;3.33;;;1.92;;
74108;SDS011;62466;47.566;7.786;2023-04-24T13:31:15;2.58;;;2.28;;
74108;SDS011;62466;47.566;7.786;2023-04-24T13:33:44;2.55;;;2.35;;
74108;SDS011;62466;47.566;7.786;2023-04-24T13:36:09;3.60;;;2.47;;
74108;SDS011;62466;47.566;7.786;2023-04-24T13:38:35;3.88;;;2.03;;
74108;SDS011;62466;47.566;7.786;2023-04-24T13:41:00;3.45;;;2.15;;
74108;SDS011;62466;47.566;7.786;2023-04-24T13:43:26;3.70;;;2.17;;
74108;SDS011;62466;47.566;7.786;2023-04-24T13:45:52;5.82;;;2.50;;
74108;SDS011;62466;47.566;7.786;2023-04-24T13:48:17;3.72;;;2.33;;
74108;SDS011;62466;47.566;7.786;2023-04-24T13:50:45;2.72;;;1.83;;
74108;SDS011;62466;47.566;7.786;2023-04-24T13:53:13;2.08;;;1.98;;
74108;SDS011;62466;47.566;7.786;2023-04-24T13:55:39;2.00;;;1.90;;
74108;SDS011;62466;47.566;7.786;2023-04-24T13:58:04;2.65;;;1.80;;
74108;SDS011;62466;47.566;7.786;2023-04-24T14:00:30;2.08;;;1.60;;
74108;SDS011;62466;47.566;7.786;2023-04-24T14:02:56;1.85;;;1.75;;
74108;SDS011;62466;47.566;7.786;2023-04-24T14:05:21;1.80;;;1.70;;
74108;SDS011;62466;47.566;7.786;2023-04-24T14:07:50;3.47;;;1.63;;
74108;SDS011;62466;47.566;7.786;2023-04-24T14:10:16;6.35;;;1.95;;
74108;SDS011;62466;47.566;7.786;2023-04-24T14:12:42;1.90;;;1.65;;
74108;SDS011;62466;47.566;7.786;2023-04-24T14:15:09;3.17;;;1.92;;
74108;SDS011;62466;47.566;7.786;2023-04-24T14:17:35;2.50;;;1.70;;
74108;SDS011;62466;47.566;7.786;2023-04-24T14:20:00;2.50;;;1.80;;
74108;SDS011;62466;47.566;7.786;2023-04-24T14:22:26;4.15;;;2.10;;
74108;SDS011;62466;47.566;7.786;2023-04-24T14:24:54;2.25;;;1.85;;
74108;SDS011;62466;47.566;7.786;2023-04-24T14:27:20;2.33;;;1.98;;
74108;SDS011;62466;47.566;7.786;2023-04-24T14:29:46;3.63;;;1.55;;
74108;SDS011;62466;47.566;7.786;2023-04-24T14:32:11;2.85;;;1.90;;
74108;SDS011;62466;47.566;7.786;2023-04-24T14:34:40;2.40;;;1.55;;
74108;SDS011;62466;47.566;7.786;2023-04-24T14:37:05;3.95;;;1.60;;
74108;SDS011;62466;47.566;7.786;2023-04-24T14:39:31;2.25;;;1.70;;
74108;SDS011;62466;47.566;7.786;2023-04-24T14:41:56;2.45;;;1.70;;
74108;SDS011;62466;47.566;7.786;2023-04-24T14:44:22;1.42;;;1.33;;
74108;SDS011;62466;47.566;7.786;2023-04-24T14:46:48;3.90;;;1.65;;
74108;SDS011;62466;47.566;7.786;2023-04-24T14:49:14;2.25;;;1.52;;
74108;SDS011;62466;47.566;7.786;2023-04-24T14:51:39;1.90;;;1.25;;
74108;SDS011;62466;47.566;7.786;2023-04-24T14:54:05;2.08;;;1.17;;
74108;SDS011;62466;47.566;7.786;2023-04-24T14:56:31;2.25;;;1.50;;
74108;SDS011;62466;47.566;7.786;2023-04-24T14:58:57;2.67;;;1.50;;
74108;SDS011;62466;47.566;7.786;2023-04-24T15:01:22;1.88;;;1.30;;
74108;SDS011;62466;47.566;7.786;2023-04-24T15:03:49;3.15;;;1.65;;
74108;SDS011;62466;47.566;7.786;2023-04-24T15:06:15;1.45;;;1.35;;
74108;SDS011;62466;47.566;7.786;2023-04-24T15:08:41;3.40;;;1.70;;
74108;SDS011;62466;47.566;7.786;2023-04-24T15:11:07;3.15;;;1.70;;
74108;SDS011;62466;47.566;7.786;2023-04-24T15:13:33;4.00;;;1.60;;